createdAt,value
2018-12-12T00:00:02.576Z,7.17
2018-12-12T00:02:30.461Z,6.87
2018-12-12T00:04:58.320Z,8.47
2018-12-12T00:07:26.460Z,6.87
2018-12-12T00:09:54.326Z,5.17
2018-12-12T00:12:22.229Z,5.97
2018-12-12T00:14:50.139Z,5.27
2018-12-12T00:17:18.021Z,5.27
2018-12-12T00:19:45.905Z,6.13
2018-12-12T00:22:13.789Z,3.57
2018-12-12T00:24:41.656Z,6.43
2018-12-12T00:27:09.483Z,5.60
2018-12-12T00:29:37.492Z,7.03
2018-12-12T00:32:05.673Z,5.87
2018-12-12T00:34:33.474Z,5.73
2018-12-12T00:37:01.432Z,6.57
2018-12-12T00:39:29.248Z,4.87
2018-12-12T00:41:57.081Z,5.40
2018-12-12T00:44:24.979Z,5.27
2018-12-12T00:46:53.037Z,9.77
2018-12-12T00:49:20.971Z,4.50
2018-12-12T00:51:49.037Z,3.83
2018-12-12T00:54:16.934Z,6.37
2018-12-12T00:56:44.771Z,5.20
2018-12-12T00:59:12.653Z,6.60
2018-12-12T01:01:40.511Z,5.20
2018-12-12T01:04:08.421Z,4.60
2018-12-12T01:06:36.290Z,8.63
2018-12-12T01:09:06.243Z,7.33
2018-12-12T01:11:39.251Z,5.00
2018-12-12T01:14:07.086Z,6.30
2018-12-12T01:16:34.994Z,8.37
2018-12-12T01:19:02.862Z,6.70
2018-12-12T01:21:30.675Z,4.93
2018-12-12T01:23:58.570Z,5.17
2018-12-12T01:26:26.435Z,7.07
2018-12-12T01:28:54.289Z,6.40
2018-12-12T01:31:22.242Z,5.53
2018-12-12T01:33:50.116Z,6.17
2018-12-12T01:36:17.977Z,5.33
2018-12-12T01:38:45.853Z,5.80
2018-12-12T01:41:13.683Z,4.60
2018-12-12T01:43:41.713Z,5.10
2018-12-12T01:46:09.557Z,8.83
2018-12-12T01:48:37.442Z,4.63
2018-12-12T01:51:05.449Z,5.17
2018-12-12T01:53:33.346Z,4.70
2018-12-12T01:56:01.222Z,7.43
2018-12-12T01:58:29.075Z,5.77
2018-12-12T02:00:56.927Z,4.97
2018-12-12T02:03:24.792Z,5.40
2018-12-12T02:05:52.689Z,8.10
2018-12-12T02:08:20.707Z,6.30
2018-12-12T02:10:48.716Z,4.70
2018-12-12T02:13:22.019Z,3.73
2018-12-12T02:15:49.911Z,7.37
2018-12-12T02:18:17.813Z,4.00
2018-12-12T02:20:45.729Z,7.50
2018-12-12T02:23:13.630Z,7.47
2018-12-12T02:25:41.590Z,6.03
2018-12-12T02:28:09.673Z,4.53
2018-12-12T02:30:37.571Z,4.97
2018-12-12T02:33:05.486Z,5.67
2018-12-12T02:35:33.349Z,6.27
2018-12-12T02:38:01.207Z,6.63
2018-12-12T02:40:29.033Z,5.83
2018-12-12T02:42:56.881Z,7.67
2018-12-12T02:45:24.753Z,8.17
2018-12-12T02:47:52.616Z,8.30
2018-12-12T02:50:20.505Z,7.60
2018-12-12T02:52:48.407Z,10.90
2018-12-12T02:55:16.261Z,5.73
2018-12-12T02:57:44.290Z,6.10
2018-12-12T03:00:12.285Z,5.53
2018-12-12T03:02:40.276Z,6.20
2018-12-12T03:05:08.117Z,8.07
2018-12-12T03:07:35.928Z,8.30
2018-12-12T03:10:03.928Z,9.53
2018-12-12T03:12:31.827Z,7.30
2018-12-12T03:14:59.802Z,10.50
2018-12-12T03:17:27.713Z,9.20
2018-12-12T03:19:55.577Z,10.70
2018-12-12T03:22:23.476Z,6.83
2018-12-12T03:24:51.357Z,10.40
2018-12-12T03:27:19.221Z,7.90
2018-12-12T03:29:47.048Z,6.33
2018-12-12T03:32:14.962Z,7.37
2018-12-12T03:34:42.818Z,8.37
2018-12-12T03:37:10.638Z,9.57
2018-12-12T03:39:38.492Z,6.93
2018-12-12T03:42:06.367Z,7.93
2018-12-12T03:44:34.211Z,8.67
2018-12-12T03:47:02.070Z,8.70
2018-12-12T03:49:29.907Z,7.63
2018-12-12T03:51:57.754Z,7.13
2018-12-12T03:54:25.593Z,8.70
2018-12-12T03:56:53.464Z,8.00
2018-12-12T03:59:21.335Z,9.17
2018-12-12T04:01:49.230Z,8.40
2018-12-12T04:04:17.179Z,8.90
2018-12-12T04:06:45.030Z,10.10
2018-12-12T04:09:13.014Z,9.00
2018-12-12T04:11:40.895Z,7.37
2018-12-12T04:14:08.732Z,9.73
2018-12-12T04:16:36.697Z,10.20
2018-12-12T04:19:04.806Z,8.43
2018-12-12T04:21:32.625Z,8.37
2018-12-12T04:24:00.537Z,6.17
2018-12-12T04:26:28.397Z,8.70
2018-12-12T04:28:56.346Z,9.23
2018-12-12T04:31:24.342Z,8.37
2018-12-12T04:33:52.326Z,7.47
2018-12-12T04:36:20.203Z,8.77
2018-12-12T04:38:48.381Z,10.50
2018-12-12T04:41:16.241Z,8.40
2018-12-12T04:43:44.228Z,8.40
2018-12-12T04:46:12.423Z,7.77
2018-12-12T04:48:40.471Z,7.53
2018-12-12T04:51:08.373Z,8.37
2018-12-12T04:53:36.427Z,8.97
2018-12-12T04:56:04.324Z,7.17
2018-12-12T04:58:32.255Z,6.97
2018-12-12T05:01:00.185Z,8.17
2018-12-12T05:03:28.032Z,10.10
2018-12-12T05:05:56.125Z,8.83
2018-12-12T05:08:24.061Z,9.43
2018-12-12T05:10:52.010Z,9.10
2018-12-12T05:13:20.015Z,8.70
2018-12-12T05:15:48.251Z,9.07
2018-12-12T05:18:16.162Z,8.03
2018-12-12T05:20:44.889Z,11.10
2018-12-12T05:23:12.869Z,10.30
2018-12-12T05:25:40.714Z,10.47
2018-12-12T05:28:08.584Z,11.00
2018-12-12T05:30:36.503Z,7.83
2018-12-12T05:33:04.416Z,8.10
2018-12-12T05:35:32.302Z,10.80
2018-12-12T05:38:00.191Z,11.77
2018-12-12T05:40:28.202Z,9.87
2018-12-12T05:42:56.081Z,11.17
2018-12-12T05:45:24.367Z,8.97
2018-12-12T05:47:52.238Z,10.37
2018-12-12T05:50:20.158Z,10.40
2018-12-12T05:52:48.049Z,9.50
2018-12-12T05:55:15.906Z,13.10
2018-12-12T05:57:43.818Z,13.32
2018-12-12T06:00:13.403Z,14.23
2018-12-12T06:02:41.299Z,13.25
2018-12-12T06:05:09.226Z,13.58
2018-12-12T06:07:37.060Z,13.32
2018-12-12T06:10:05.733Z,17.67
2018-12-12T06:12:33.604Z,12.58
2018-12-12T06:15:01.487Z,12.68
2018-12-12T06:17:29.524Z,14.38
2018-12-12T06:19:57.679Z,14.87
2018-12-12T06:22:25.828Z,18.17
2018-12-12T06:24:53.681Z,16.67
2018-12-12T06:27:21.578Z,17.85
2018-12-12T06:29:49.434Z,14.03
2018-12-12T06:32:17.334Z,14.65
2018-12-12T06:34:45.201Z,14.30
2018-12-12T06:37:13.428Z,20.08
2018-12-12T06:39:41.335Z,18.48
2018-12-12T06:42:09.440Z,14.78
2018-12-12T06:44:37.306Z,12.73
2018-12-12T06:47:05.118Z,14.40
2018-12-12T06:49:33.009Z,16.95
2018-12-12T06:52:00.862Z,21.97
2018-12-12T06:54:28.718Z,20.97
2018-12-12T06:56:56.571Z,22.48
2018-12-12T06:59:24.432Z,20.72
2018-12-12T07:01:52.435Z,19.27
2018-12-12T07:04:20.299Z,17.85
2018-12-12T07:06:48.181Z,19.73
2018-12-12T07:09:16.631Z,24.07
2018-12-12T07:11:44.521Z,21.37
2018-12-12T07:14:12.428Z,19.80
2018-12-12T07:16:40.506Z,18.10
2018-12-12T07:19:08.465Z,20.43
2018-12-12T07:21:36.328Z,24.45
2018-12-12T07:24:04.181Z,23.60
2018-12-12T07:26:32.007Z,18.80
2018-12-12T07:28:59.881Z,19.32
2018-12-12T07:31:27.714Z,18.70
2018-12-12T07:34:00.772Z,21.30
2018-12-12T07:36:25.711Z,23.47
2018-12-12T07:38:53.583Z,20.52
2018-12-12T07:41:22.029Z,21.27
2018-12-12T07:43:49.934Z,25.32
2018-12-12T07:46:18.958Z,23.15
2018-12-12T07:48:46.793Z,25.72
2018-12-12T07:51:14.706Z,26.60
2018-12-12T07:53:42.613Z,21.93
2018-12-12T07:56:10.453Z,20.92
2018-12-12T07:58:38.654Z,18.85
2018-12-12T08:01:06.515Z,21.97
2018-12-12T08:03:34.364Z,20.80
2018-12-12T08:06:02.387Z,19.17
2018-12-12T08:08:30.224Z,19.82
2018-12-12T08:10:58.175Z,23.32
2018-12-12T08:13:26.099Z,22.05
2018-12-12T08:15:53.964Z,22.10
2018-12-12T08:18:21.854Z,19.27
2018-12-12T08:20:49.744Z,17.92
2018-12-12T08:23:18.079Z,19.90
2018-12-12T08:25:46.130Z,17.80
2018-12-12T08:28:14.010Z,17.75
2018-12-12T08:30:42.008Z,17.52
2018-12-12T08:33:11.356Z,18.87
2018-12-12T08:35:39.392Z,17.82
2018-12-12T08:38:07.371Z,17.07
2018-12-12T08:40:35.227Z,14.43
2018-12-12T08:43:03.289Z,17.17
2018-12-12T08:45:31.632Z,17.95
2018-12-12T08:47:59.515Z,20.15
2018-12-12T08:50:27.382Z,28.90
2018-12-12T08:52:55.286Z,20.23
2018-12-12T08:55:23.169Z,21.00
2018-12-12T08:57:51.222Z,21.35
2018-12-12T09:00:19.067Z,22.60
2018-12-12T09:02:46.894Z,23.87
2018-12-12T09:05:14.771Z,24.43
2018-12-12T09:07:42.682Z,23.02
2018-12-12T09:10:10.532Z,27.13
2018-12-12T09:12:38.393Z,25.65
2018-12-12T09:15:06.606Z,25.72
2018-12-12T09:17:34.522Z,31.70
2018-12-12T09:20:02.414Z,32.53
2018-12-12T09:22:30.378Z,25.30
2018-12-12T09:24:58.248Z,38.60
2018-12-12T09:27:26.147Z,30.12
2018-12-12T09:29:54.024Z,28.17
2018-12-12T09:32:21.896Z,22.85
2018-12-12T09:34:49.794Z,25.00
2018-12-12T09:37:17.672Z,29.23
2018-12-12T09:39:45.615Z,24.45
2018-12-12T09:42:13.549Z,26.75
2018-12-12T09:44:41.529Z,24.18
2018-12-12T09:47:09.429Z,23.73
2018-12-12T09:49:37.384Z,25.72
2018-12-12T09:52:05.281Z,25.00
2018-12-12T09:54:33.199Z,26.07
2018-12-12T09:57:01.096Z,22.25
2018-12-12T09:59:28.949Z,29.77
2018-12-12T10:01:56.908Z,22.77
2018-12-12T10:04:24.788Z,26.60
2018-12-12T10:06:52.698Z,27.93
2018-12-12T10:09:20.615Z,25.92
2018-12-12T10:11:48.469Z,25.27
2018-12-12T10:14:26.096Z,24.90
2018-12-12T10:20:21.867Z,23.52
2018-12-12T10:23:18.200Z,26.37
2018-12-12T10:25:46.092Z,24.40
2018-12-12T10:30:26.296Z,26.17
2018-12-12T10:34:40.303Z,23.22
2018-12-12T10:37:08.128Z,26.62
2018-12-12T10:39:36.534Z,19.40
2018-12-12T10:42:04.442Z,25.68
2018-12-12T10:44:33.440Z,29.40
2018-12-12T10:47:35.154Z,33.10
2018-12-12T10:53:12.243Z,21.20
2018-12-12T10:56:41.647Z,21.27
2018-12-12T10:59:16.673Z,20.00
2018-12-12T11:05:18.406Z,19.00
2018-12-12T11:07:56.206Z,25.50
2018-12-12T11:10:24.962Z,19.75
2018-12-12T11:12:52.857Z,19.57
2018-12-12T11:15:20.768Z,22.85
2018-12-12T11:17:48.618Z,24.65
2018-12-12T11:20:16.550Z,20.68
2018-12-12T11:22:44.529Z,20.43
2018-12-12T11:25:12.473Z,20.80
2018-12-12T11:27:40.398Z,20.55
2018-12-12T11:30:08.321Z,23.70
2018-12-12T11:32:36.177Z,20.55
2018-12-12T11:35:04.256Z,19.42
2018-12-12T11:37:32.125Z,21.17
2018-12-12T11:40:00.009Z,21.80
2018-12-12T11:42:27.917Z,20.62
2018-12-12T11:44:55.781Z,23.38
2018-12-12T11:47:23.651Z,24.18
2018-12-12T11:49:51.498Z,18.27
2018-12-12T11:52:19.476Z,23.83
2018-12-12T11:54:47.402Z,26.82
2018-12-12T11:57:15.606Z,24.02
2018-12-12T11:59:43.614Z,26.82
2018-12-12T12:02:11.565Z,23.02
2018-12-12T12:04:39.499Z,19.67
2018-12-12T12:07:07.562Z,21.52
2018-12-12T12:09:35.597Z,20.25
2018-12-12T12:12:03.806Z,19.10
2018-12-12T12:14:31.713Z,29.80
2018-12-12T12:16:59.589Z,26.35
2018-12-12T12:19:27.457Z,18.45
2018-12-12T12:21:55.503Z,17.05
2018-12-12T12:24:24.410Z,25.07
2018-12-12T12:26:52.378Z,19.97
2018-12-12T12:29:20.341Z,19.00
2018-12-12T12:31:48.233Z,20.02
2018-12-12T12:34:16.182Z,19.35
2018-12-12T12:36:44.663Z,22.35
2018-12-12T12:39:12.537Z,22.62
2018-12-12T12:41:40.422Z,21.20
2018-12-12T12:44:08.285Z,21.60
2018-12-12T12:46:36.343Z,22.25
2018-12-12T12:49:04.284Z,27.55
2018-12-12T12:51:32.144Z,25.15
2018-12-12T12:54:00.012Z,27.35
2018-12-12T12:56:27.887Z,21.33
2018-12-12T12:58:55.818Z,19.50
2018-12-12T13:01:23.786Z,23.87
2018-12-12T13:03:51.634Z,20.57
2018-12-12T13:06:19.915Z,24.52
2018-12-12T13:08:47.774Z,23.80
2018-12-12T13:11:15.641Z,24.12
2018-12-12T13:13:43.614Z,21.82
2018-12-12T13:16:12.299Z,27.02
2018-12-12T13:18:40.291Z,22.52
2018-12-12T13:21:08.161Z,23.30
2018-12-12T13:23:36.042Z,30.75
2018-12-12T13:26:03.943Z,19.15
2018-12-12T13:28:31.822Z,26.20
2018-12-12T13:30:59.750Z,69.40
2018-12-12T13:33:27.677Z,28.80
2018-12-12T13:35:55.691Z,33.98
2018-12-12T13:38:23.693Z,30.12
2018-12-12T13:40:51.811Z,32.40
2018-12-12T13:43:19.742Z,28.80
2018-12-12T13:45:47.650Z,30.43
2018-12-12T13:48:15.497Z,28.90
2018-12-12T13:50:44.307Z,37.75
2018-12-12T13:53:12.398Z,25.88
2018-12-12T13:55:40.298Z,24.80
2018-12-12T13:58:08.307Z,25.40
2018-12-12T14:00:39.059Z,27.60
2018-12-12T14:03:06.077Z,31.42
2018-12-12T14:05:34.407Z,20.25
2018-12-12T14:08:02.399Z,32.73
2018-12-12T14:10:30.476Z,31.77
2018-12-12T14:12:58.354Z,28.75
2018-12-12T14:15:26.203Z,25.57
2018-12-12T14:17:54.038Z,20.65
2018-12-12T14:20:21.931Z,32.58
2018-12-12T14:22:50.127Z,28.02
2018-12-12T14:25:18.024Z,24.55
2018-12-12T14:27:46.032Z,23.12
2018-12-12T14:30:14.131Z,26.90
2018-12-12T14:32:42.515Z,24.18
2018-12-12T14:35:10.577Z,23.65
2018-12-12T14:37:38.565Z,24.43
2018-12-12T14:40:07.188Z,24.47
2018-12-12T14:42:35.061Z,26.33
2018-12-12T14:45:03.004Z,20.48
2018-12-12T14:47:30.838Z,19.57
2018-12-12T14:50:01.149Z,23.32
2018-12-12T14:52:29.030Z,25.43
2018-12-12T14:54:56.882Z,24.63
2018-12-12T14:57:24.777Z,26.48
2018-12-12T14:59:52.613Z,24.52
2018-12-12T15:02:20.734Z,20.95
2018-12-12T15:04:48.623Z,20.30
2018-12-12T15:07:16.525Z,22.98
2018-12-12T15:09:44.493Z,36.23
2018-12-12T15:12:12.589Z,21.45
2018-12-12T15:14:40.735Z,22.55
2018-12-12T15:17:08.577Z,22.00
2018-12-12T15:19:36.493Z,20.20
2018-12-12T15:22:04.647Z,22.32
2018-12-12T15:24:32.624Z,23.05
2018-12-12T15:27:00.449Z,17.67
2018-12-12T15:29:28.313Z,25.50
2018-12-12T15:31:56.357Z,23.00
2018-12-12T15:34:24.221Z,20.27
2018-12-12T15:36:52.120Z,25.40
2018-12-12T15:39:19.944Z,21.25
2018-12-12T15:41:48.025Z,21.55
2018-12-12T15:44:15.909Z,21.60
2018-12-12T15:46:43.921Z,22.90
2018-12-12T15:49:11.799Z,26.37
2018-12-12T15:51:39.648Z,26.17
2018-12-12T15:54:07.500Z,24.20
2018-12-12T15:56:35.440Z,23.95
2018-12-12T15:59:03.405Z,28.57
2018-12-12T16:01:31.415Z,25.25
2018-12-12T16:03:59.248Z,25.60
2018-12-12T16:06:27.105Z,29.65
2018-12-12T16:08:54.949Z,19.80
2018-12-12T16:13:57.078Z,26.02
2018-12-12T16:16:24.933Z,24.72
2018-12-12T16:18:52.850Z,21.50
2018-12-12T16:21:20.899Z,24.45
2018-12-12T16:23:48.790Z,21.40
2018-12-12T16:26:16.749Z,25.00
2018-12-12T16:28:44.662Z,21.37
2018-12-12T16:31:12.507Z,24.65
2018-12-12T16:33:40.338Z,26.17
2018-12-12T16:36:08.223Z,26.70
2018-12-12T16:38:36.234Z,24.60
2018-12-12T16:41:04.285Z,27.93
2018-12-12T16:43:32.425Z,23.35
2018-12-12T16:46:00.501Z,28.00
2018-12-12T16:48:28.366Z,24.47
2018-12-12T16:50:56.288Z,27.65
2018-12-12T16:53:24.172Z,22.82
2018-12-12T16:55:52.006Z,25.57
2018-12-12T16:58:19.980Z,23.50
2018-12-12T17:00:47.837Z,25.75
2018-12-12T17:03:15.736Z,24.57
2018-12-12T17:05:43.969Z,27.93
2018-12-12T17:08:12.209Z,26.93
2018-12-12T17:10:40.089Z,24.00
2018-12-12T17:13:07.978Z,26.70
2018-12-12T17:15:35.831Z,26.62
2018-12-12T17:18:03.785Z,30.20
2018-12-12T17:20:31.816Z,27.13
2018-12-12T17:24:02.596Z,30.37
2018-12-12T17:26:30.472Z,26.05
2018-12-12T17:28:58.969Z,29.02
2018-12-12T17:31:27.582Z,29.92
2018-12-12T17:33:55.449Z,29.95
2018-12-12T17:36:23.468Z,29.10
2018-12-12T17:38:51.302Z,30.32
2018-12-12T17:41:19.148Z,26.33
2018-12-12T17:43:47.058Z,27.93
2018-12-12T17:46:14.900Z,30.48
2018-12-12T17:48:43.381Z,27.87
2018-12-12T17:51:11.380Z,27.10
2018-12-12T17:53:39.225Z,28.57
2018-12-12T17:56:07.127Z,28.65
2018-12-12T17:58:34.983Z,29.37
2018-12-12T18:01:02.833Z,30.00
2018-12-12T18:03:30.699Z,30.60
2018-12-12T18:05:58.550Z,30.25
2018-12-12T18:08:26.438Z,29.37
2018-12-12T18:10:54.303Z,33.30
2018-12-12T18:13:22.172Z,31.02
2018-12-12T18:15:50.022Z,34.78
2018-12-12T18:18:17.936Z,29.00
2018-12-12T18:20:45.862Z,29.75
2018-12-12T18:23:14.094Z,26.62
2018-12-12T18:25:42.273Z,29.18
2018-12-12T18:28:10.222Z,28.05
2018-12-12T18:30:38.192Z,29.82
2018-12-12T18:34:08.405Z,31.85
2018-12-12T18:36:36.303Z,32.25
2018-12-12T18:39:06.511Z,35.30
2018-12-12T18:41:34.805Z,37.53
2018-12-12T18:44:02.857Z,38.38
2018-12-12T18:46:30.709Z,42.53
2018-12-12T18:48:58.568Z,43.35
2018-12-12T18:51:26.619Z,37.75
2018-12-12T18:53:54.547Z,39.73
2018-12-12T18:56:22.469Z,32.48
2018-12-12T18:58:50.538Z,31.50
2018-12-12T19:01:18.379Z,33.63
2018-12-12T19:03:46.268Z,36.90
2018-12-12T19:06:14.468Z,32.63
2018-12-12T19:08:42.375Z,34.05
2018-12-12T19:11:10.225Z,34.43
2018-12-12T19:13:38.062Z,32.10
2018-12-12T19:16:06.006Z,29.23
2018-12-12T19:18:33.879Z,28.07
2018-12-12T19:21:01.697Z,33.02
2018-12-12T19:23:29.647Z,29.92
2018-12-12T19:25:57.722Z,31.60
2018-12-12T19:28:25.585Z,41.48
2018-12-12T19:30:53.465Z,31.90
2018-12-12T19:33:21.420Z,38.30
2018-12-12T19:35:49.406Z,34.75
2018-12-12T19:38:17.488Z,32.08
2018-12-12T19:40:45.549Z,27.90
2018-12-12T19:43:13.489Z,35.33
2018-12-12T19:45:41.352Z,36.00
2018-12-12T19:48:09.260Z,31.60
2018-12-12T19:50:37.119Z,33.73
2018-12-12T19:53:05.195Z,35.60
2018-12-12T19:55:33.126Z,28.60
2018-12-12T19:58:01.040Z,31.70
2018-12-12T20:00:28.923Z,29.50
2018-12-12T20:02:56.984Z,33.55
2018-12-12T20:05:24.905Z,40.20
2018-12-12T20:07:52.863Z,31.87
2018-12-12T20:10:20.711Z,33.63
2018-12-12T20:12:48.762Z,34.78
2018-12-12T20:15:22.150Z,34.67
2018-12-12T20:17:50.154Z,34.90
2018-12-12T20:20:18.354Z,37.17
2018-12-12T20:22:46.353Z,38.33
2018-12-12T20:25:14.478Z,41.20
2018-12-12T20:27:42.487Z,39.88
2018-12-12T20:30:10.402Z,37.33
2018-12-12T20:32:38.286Z,33.83
2018-12-12T20:35:06.122Z,37.60
2018-12-12T20:37:34.110Z,33.75
2018-12-12T20:40:02.015Z,38.75
2018-12-12T20:42:29.884Z,37.20
2018-12-12T20:44:58.257Z,37.93
2018-12-12T20:47:26.110Z,35.80
2018-12-12T20:49:53.919Z,39.10
2018-12-12T20:52:21.874Z,32.93
2018-12-12T20:54:49.880Z,32.65
2018-12-12T20:57:17.857Z,36.88
2018-12-12T20:59:45.944Z,39.10
2018-12-12T21:02:14.043Z,39.08
2018-12-12T21:04:42.008Z,32.05
2018-12-12T21:07:09.912Z,37.05
2018-12-12T21:09:37.765Z,38.70
2018-12-12T21:12:05.665Z,40.70
2018-12-12T21:14:33.613Z,33.65
2018-12-12T21:17:01.663Z,38.48
2018-12-12T21:19:29.604Z,41.18
2018-12-12T21:21:57.441Z,40.75
2018-12-12T21:24:25.424Z,38.58
2018-12-12T21:26:53.279Z,41.02
2018-12-12T21:29:21.111Z,39.10
2018-12-12T21:31:49.009Z,36.17
2018-12-12T21:34:16.850Z,40.50
2018-12-12T21:36:44.678Z,37.28
2018-12-12T21:39:12.561Z,36.28
2018-12-12T21:41:40.482Z,41.18
2018-12-12T21:44:08.357Z,36.77
2018-12-12T21:46:36.211Z,39.98
2018-12-12T21:49:04.097Z,41.28
2018-12-12T21:51:31.925Z,41.10
2018-12-12T21:53:59.778Z,35.43
2018-12-12T21:56:27.697Z,34.25
2018-12-12T21:58:55.605Z,39.78
2018-12-12T22:01:23.473Z,47.25
2018-12-12T22:03:51.366Z,34.30
2018-12-12T22:06:19.694Z,35.33
2018-12-12T22:08:47.531Z,34.50
2018-12-12T22:11:15.419Z,39.15
2018-12-12T22:13:43.347Z,43.00
2018-12-12T22:16:11.981Z,39.63
2018-12-12T22:18:39.952Z,34.83
2018-12-12T22:21:07.809Z,38.85
2018-12-12T22:23:35.680Z,35.90
2018-12-12T22:26:03.550Z,35.20
2018-12-12T22:28:31.451Z,37.23
2018-12-12T22:30:59.372Z,40.98
2018-12-12T22:33:27.207Z,39.13
2018-12-12T22:35:55.117Z,36.15
2018-12-12T22:38:22.969Z,37.17
2018-12-12T22:40:50.829Z,37.55
2018-12-12T22:43:18.669Z,37.88
2018-12-12T22:45:46.751Z,38.33
2018-12-12T22:48:20.319Z,34.50
2018-12-12T22:50:44.593Z,35.15
2018-12-12T22:53:12.461Z,35.52
2018-12-12T22:55:40.346Z,40.20
2018-12-12T22:58:08.216Z,35.70
2018-12-12T23:00:36.570Z,35.20
2018-12-12T23:03:04.490Z,37.42
2018-12-12T23:05:33.072Z,39.25
2018-12-12T23:08:00.964Z,43.02
2018-12-12T23:10:28.910Z,38.30
2018-12-12T23:12:56.844Z,38.25
2018-12-12T23:15:25.409Z,37.10
2018-12-12T23:17:53.368Z,26.85
2018-12-12T23:20:21.380Z,35.38
2018-12-12T23:22:49.241Z,35.65
2018-12-12T23:25:17.107Z,35.48
2018-12-12T23:27:45.027Z,34.55
2018-12-12T23:30:13.040Z,36.75
2018-12-12T23:32:40.920Z,31.10
2018-12-12T23:35:08.747Z,37.25
2018-12-12T23:37:36.715Z,37.08
2018-12-12T23:40:04.882Z,36.28
2018-12-12T23:42:32.830Z,34.13
2018-12-12T23:45:00.723Z,33.60
2018-12-12T23:47:28.571Z,31.25
2018-12-12T23:49:56.427Z,28.87
2018-12-12T23:52:24.345Z,32.10
2018-12-12T23:54:52.203Z,32.65
2018-12-12T23:57:20.086Z,30.00
2018-12-12T23:59:47.942Z,30.70
